createdAt,value
2023-04-12T00:02:59.686Z,100.00
2023-04-12T00:06:07.478Z,100.00
2023-04-12T00:09:10.433Z,100.00
2023-04-12T00:12:13.315Z,100.00
2023-04-12T00:15:16.136Z,100.00
2023-04-12T00:18:21.988Z,100.00
2023-04-12T00:21:24.946Z,100.00
2023-04-12T00:24:27.771Z,100.00
2023-04-12T00:27:30.578Z,100.00
2023-04-12T00:30:33.527Z,100.00
2023-04-12T00:33:36.431Z,100.00
2023-04-12T00:36:39.251Z,100.00
2023-04-12T00:39:42.031Z,100.00
2023-04-12T00:42:44.829Z,100.00
2023-04-12T00:45:51.365Z,100.00
2023-04-12T00:48:54.320Z,100.00
2023-04-12T00:52:03.642Z,100.00
2023-04-12T00:55:12.184Z,100.00
2023-04-12T00:58:15.090Z,100.00
2023-04-12T01:01:21.926Z,100.00
2023-04-12T01:04:26.612Z,100.00
2023-04-12T01:07:32.322Z,100.00
2023-04-12T01:10:52.505Z,100.00
2023-04-12T01:14:08.525Z,100.00
2023-04-12T01:17:14.675Z,100.00
2023-04-12T01:20:21.850Z,100.00
2023-04-12T01:23:43.536Z,100.00
2023-04-12T01:26:48.553Z,100.00
2023-04-12T01:29:51.891Z,100.00
2023-04-12T01:32:56.947Z,100.00
2023-04-12T01:36:07.583Z,100.00
2023-04-12T01:39:11.020Z,100.00
2023-04-12T01:42:20.030Z,100.00
2023-04-12T01:45:22.795Z,100.00
2023-04-12T01:48:25.689Z,100.00
2023-04-12T01:51:39.909Z,100.00
2023-04-12T01:54:43.485Z,100.00
2023-04-12T01:57:46.731Z,100.00
2023-04-12T02:00:53.244Z,100.00
2023-04-12T02:03:59.569Z,100.00
2023-04-12T02:07:03.263Z,100.00
2023-04-12T02:10:06.533Z,100.00
2023-04-12T02:13:09.842Z,100.00
2023-04-12T02:16:14.266Z,100.00
2023-04-12T02:19:19.649Z,100.00
2023-04-12T02:22:22.696Z,100.00
2023-04-12T02:25:25.430Z,100.00
2023-04-12T02:28:28.381Z,100.00
2023-04-12T02:31:31.086Z,100.00
2023-04-12T02:34:38.694Z,100.00
2023-04-12T02:37:44.330Z,100.00
2023-04-12T02:40:47.083Z,100.00
2023-04-12T02:43:50.200Z,100.00
2023-04-12T02:46:53.143Z,100.00
2023-04-12T02:49:56.341Z,100.00
2023-04-12T02:52:59.173Z,100.00
2023-04-12T02:56:01.964Z,100.00
2023-04-12T02:59:04.795Z,100.00
2023-04-12T03:02:08.115Z,100.00
2023-04-12T03:05:14.930Z,100.00
2023-04-12T03:08:17.699Z,100.00
2023-04-12T03:11:20.473Z,100.00
2023-04-12T03:14:23.180Z,100.00
2023-04-12T03:17:26.045Z,100.00
2023-04-12T03:20:29.102Z,100.00
2023-04-12T03:23:32.011Z,100.00
2023-04-12T03:26:35.230Z,100.00
2023-04-12T03:29:38.217Z,100.00
2023-04-12T03:32:44.335Z,100.00
2023-04-12T03:35:47.182Z,100.00
2023-04-12T03:38:49.892Z,100.00
2023-04-12T03:41:53.491Z,100.00
2023-04-12T03:44:56.826Z,100.00
2023-04-12T03:47:59.603Z,100.00
2023-04-12T03:51:07.982Z,100.00
2023-04-12T03:54:11.732Z,100.00
2023-04-12T03:57:14.472Z,100.00
2023-04-12T04:00:18.520Z,100.00
2023-04-12T04:03:27.324Z,100.00
2023-04-12T04:06:30.114Z,100.00
2023-04-12T04:09:34.017Z,100.00
2023-04-12T04:12:36.826Z,100.00
2023-04-12T04:15:39.717Z,100.00
2023-04-12T04:18:42.365Z,100.00
2023-04-12T04:21:45.386Z,100.00
2023-04-12T04:24:48.528Z,100.00
2023-04-12T04:27:51.288Z,100.00
2023-04-12T04:30:57.114Z,100.00
2023-04-12T04:34:05.753Z,100.00
2023-04-12T04:37:08.604Z,100.00
2023-04-12T04:40:11.907Z,100.00
2023-04-12T04:43:18.920Z,100.00
2023-04-12T04:46:25.975Z,100.00
2023-04-12T04:49:32.296Z,100.00
2023-04-12T04:52:35.015Z,100.00
2023-04-12T04:55:37.912Z,100.00
2023-04-12T04:58:40.856Z,100.00
2023-04-12T05:01:43.673Z,100.00
2023-04-12T05:04:46.665Z,100.00
2023-04-12T05:07:52.481Z,100.00
2023-04-12T05:10:56.750Z,100.00
2023-04-12T05:13:59.549Z,100.00
2023-04-12T05:17:02.284Z,100.00
2023-04-12T05:20:10.267Z,100.00
2023-04-12T05:23:16.361Z,100.00
2023-04-12T05:26:22.278Z,100.00
2023-04-12T05:29:25.078Z,100.00
2023-04-12T05:32:27.954Z,100.00
2023-04-12T05:35:31.638Z,100.00
2023-04-12T05:38:40.542Z,100.00
2023-04-12T05:41:43.555Z,100.00
2023-04-12T05:44:49.792Z,100.00
2023-04-12T05:47:54.806Z,99.95
2023-04-12T05:50:57.657Z,99.65
2023-04-12T05:54:01.535Z,98.27
2023-04-12T05:57:04.380Z,97.04
2023-04-12T06:00:16.831Z,96.37
2023-04-12T06:03:20.646Z,94.34
2023-04-12T06:06:24.642Z,94.40
2023-04-12T06:09:27.542Z,94.09
2023-04-12T06:12:30.720Z,92.75
2023-04-12T06:15:37.401Z,92.56
2023-04-12T06:18:40.551Z,92.29
2023-04-12T06:21:43.518Z,91.80
2023-04-12T06:24:46.285Z,91.33
2023-04-12T06:27:49.102Z,89.28
2023-04-12T06:30:51.895Z,90.94
2023-04-12T06:33:54.645Z,89.20
2023-04-12T06:36:57.807Z,89.18
2023-04-12T06:40:00.686Z,87.70
2023-04-12T06:43:06.496Z,87.28
2023-04-12T06:46:09.331Z,85.10
2023-04-12T06:49:12.435Z,85.69
2023-04-12T06:52:15.214Z,84.95
2023-04-12T06:55:18.298Z,83.93
2023-04-12T06:58:22.027Z,82.66
2023-04-12T07:01:24.786Z,82.31
2023-04-12T07:04:28.512Z,81.22
2023-04-12T07:07:31.293Z,80.85
2023-04-12T07:10:34.163Z,80.76
2023-04-12T07:13:37.119Z,80.36
2023-04-12T07:16:39.949Z,81.33
2023-04-12T07:19:44.177Z,79.68
2023-04-12T07:22:47.329Z,80.72
2023-04-12T07:25:50.037Z,78.96
2023-04-12T07:28:52.808Z,79.77
2023-04-12T07:31:55.900Z,79.69
2023-04-12T07:34:59.470Z,77.44
2023-04-12T07:38:02.336Z,77.02
2023-04-12T07:41:05.680Z,77.93
2023-04-12T07:44:08.387Z,75.69
2023-04-12T07:47:11.278Z,75.58
2023-04-12T07:50:14.182Z,74.95
2023-04-12T07:53:24.486Z,75.00
2023-04-12T07:56:27.517Z,73.88
2023-04-12T07:59:31.450Z,74.71
2023-04-12T08:02:34.266Z,72.48
2023-04-12T08:05:37.325Z,69.27
2023-04-12T08:08:40.258Z,69.02
2023-04-12T08:11:43.641Z,73.45
2023-04-12T08:14:46.624Z,70.72
2023-04-12T08:17:49.661Z,69.68
2023-04-12T08:20:52.862Z,68.23
2023-04-12T08:23:56.004Z,68.01
2023-04-12T08:26:58.962Z,68.59
2023-04-12T08:30:01.772Z,67.99
2023-04-12T08:33:05.346Z,65.76
2023-04-12T08:36:09.121Z,66.65
2023-04-12T08:39:11.885Z,64.09
2023-04-12T08:42:18.600Z,66.09
2023-04-12T08:45:26.161Z,65.33
2023-04-12T08:48:29.669Z,63.89
2023-04-12T08:51:35.037Z,65.13
2023-04-12T08:54:38.065Z,61.51
2023-04-12T08:57:42.143Z,62.07
2023-04-12T09:00:46.481Z,58.67
2023-04-12T09:03:50.106Z,59.19
2023-04-12T09:06:53.325Z,59.55
2023-04-12T09:09:57.243Z,57.76
2023-04-12T09:13:01.495Z,57.91
2023-04-12T09:16:04.515Z,55.71
2023-04-12T09:19:08.297Z,58.15
2023-04-12T09:22:11.250Z,61.43
2023-04-12T09:25:15.348Z,57.97
2023-04-12T09:28:20.693Z,58.65
2023-04-12T09:31:23.529Z,56.31
2023-04-12T09:34:27.876Z,53.68
2023-04-12T09:37:32.025Z,55.09
2023-04-12T09:40:39.189Z,54.51
2023-04-12T09:43:42.298Z,54.77
2023-04-12T09:46:55.004Z,51.37
2023-04-12T09:49:57.862Z,51.78
2023-04-12T09:53:02.643Z,53.24
2023-04-12T09:56:12.027Z,53.59
2023-04-12T09:59:16.869Z,50.64
2023-04-12T10:02:24.412Z,50.23
2023-04-12T10:05:31.479Z,52.41
2023-04-12T10:08:34.730Z,51.09
2023-04-12T10:11:42.526Z,45.83
2023-04-12T10:14:46.519Z,46.76
2023-04-12T10:17:53.294Z,47.49
2023-04-12T10:20:57.120Z,47.80
2023-04-12T10:23:59.931Z,42.16
2023-04-12T10:27:04.766Z,44.40
2023-04-12T10:30:24.039Z,45.80
2023-04-12T10:33:28.414Z,42.63
2023-04-12T10:36:52.264Z,45.16
2023-04-12T10:39:58.253Z,40.21
2023-04-12T10:43:20.049Z,44.29
2023-04-12T10:46:38.859Z,45.92
2023-04-12T10:50:28.054Z,41.68
2023-04-12T10:53:30.963Z,42.11
2023-04-12T10:56:44.287Z,42.14
2023-04-12T10:59:51.243Z,40.53
2023-04-12T11:03:12.474Z,41.65
2023-04-12T11:06:27.120Z,39.63
2023-04-12T11:09:37.097Z,39.23
2023-04-12T11:12:50.967Z,39.47
2023-04-12T11:15:57.042Z,41.12
2023-04-12T11:19:01.139Z,37.28
2023-04-12T11:22:05.534Z,38.79
2023-04-12T11:25:09.393Z,39.50
2023-04-12T11:28:27.326Z,38.33
2023-04-12T11:31:32.421Z,37.30
2023-04-12T11:34:37.256Z,33.69
2023-04-12T11:37:44.673Z,34.48
2023-04-12T11:40:48.884Z,37.36
2023-04-12T11:43:52.937Z,31.34
2023-04-12T11:46:56.090Z,36.38
2023-04-12T11:50:00.225Z,33.09
2023-04-12T11:53:18.143Z,31.74
2023-04-12T11:56:24.686Z,34.27
2023-04-12T11:59:33.253Z,33.44
2023-04-12T12:02:41.278Z,31.34
2023-04-12T12:05:52.372Z,30.11
2023-04-12T12:08:56.444Z,30.66
2023-04-12T12:11:59.937Z,31.76
2023-04-12T12:15:03.066Z,31.82
2023-04-12T12:18:09.885Z,30.69
2023-04-12T12:21:14.150Z,31.61
2023-04-12T12:24:18.051Z,33.75
2023-04-12T12:27:48.238Z,32.04
2023-04-12T12:30:56.165Z,32.03
2023-04-12T12:34:01.170Z,31.84
2023-04-12T12:37:09.089Z,29.18
2023-04-12T12:40:16.802Z,32.82
2023-04-12T12:43:21.103Z,32.93
2023-04-12T12:46:24.015Z,32.55
2023-04-12T12:49:27.027Z,32.23
2023-04-12T12:52:29.805Z,31.27
2023-04-12T12:55:32.810Z,31.96
2023-04-12T12:58:40.716Z,31.91
2023-04-12T13:01:44.088Z,29.36
2023-04-12T13:04:47.258Z,29.67
2023-04-12T13:07:50.081Z,31.88
2023-04-12T13:10:53.110Z,30.66
2023-04-12T13:13:56.328Z,30.46
2023-04-12T13:17:01.146Z,29.14
2023-04-12T13:20:04.350Z,28.55
2023-04-12T13:23:07.462Z,31.77
2023-04-12T13:26:10.708Z,29.67
2023-04-12T13:29:15.176Z,27.24
2023-04-12T13:32:19.102Z,25.46
2023-04-12T13:35:21.951Z,27.25
2023-04-12T13:38:24.791Z,26.67
2023-04-12T13:41:27.858Z,30.49
2023-04-12T13:44:31.384Z,27.50
2023-04-12T13:47:35.672Z,25.52
2023-04-12T13:50:38.840Z,26.82
2023-04-12T13:53:41.741Z,26.26
2023-04-12T13:56:44.627Z,26.36
2023-04-12T13:59:50.299Z,26.70
2023-04-12T14:02:53.133Z,27.08
2023-04-12T14:05:56.352Z,26.14
2023-04-12T14:08:59.561Z,26.41
2023-04-12T14:12:04.151Z,26.76
2023-04-12T14:15:08.723Z,24.33
2023-04-12T14:18:12.211Z,26.82
2023-04-12T14:21:18.032Z,26.25
2023-04-12T14:24:22.103Z,26.67
2023-04-12T14:27:25.766Z,27.22
2023-04-12T14:30:28.454Z,26.58
2023-04-12T14:33:34.998Z,26.86
2023-04-12T14:36:41.062Z,26.02
2023-04-12T14:39:44.622Z,25.71
2023-04-12T14:42:48.690Z,25.57
2023-04-12T14:46:04.370Z,25.18
2023-04-12T14:49:08.443Z,27.16
2023-04-12T14:52:11.383Z,26.31
2023-04-12T14:55:14.276Z,25.67
2023-04-12T14:58:17.659Z,25.31
2023-04-12T15:01:21.981Z,24.07
2023-04-12T15:04:26.312Z,24.31
2023-04-12T15:07:31.316Z,26.62
2023-04-12T15:10:35.727Z,27.04
2023-04-12T15:13:42.234Z,26.04
2023-04-12T15:16:47.379Z,27.99
2023-04-12T15:19:50.525Z,30.37
2023-04-12T15:22:53.631Z,30.63
2023-04-12T15:26:02.141Z,32.24
2023-04-12T15:29:05.361Z,34.76
2023-04-12T15:32:11.593Z,35.95
2023-04-12T15:35:26.099Z,36.45
2023-04-12T15:38:31.061Z,36.51
2023-04-12T15:41:38.833Z,36.80
2023-04-12T15:44:42.251Z,37.07
2023-04-12T15:47:46.186Z,37.49
2023-04-12T15:50:50.286Z,38.89
2023-04-12T15:53:54.114Z,38.80
2023-04-12T15:56:56.992Z,38.70
2023-04-12T16:00:01.560Z,39.12
2023-04-12T16:03:06.217Z,38.66
2023-04-12T16:06:09.335Z,39.52
2023-04-12T16:09:15.187Z,39.55
2023-04-12T16:12:18.645Z,39.72
2023-04-12T16:15:21.994Z,40.65
2023-04-12T16:18:25.102Z,41.30
2023-04-12T16:21:29.754Z,41.10
2023-04-12T16:24:33.034Z,40.93
2023-04-12T16:27:35.934Z,41.51
2023-04-12T16:30:38.959Z,42.28
2023-04-12T16:33:43.193Z,42.16
2023-04-12T16:36:47.987Z,42.10
2023-04-12T16:39:51.556Z,42.32
2023-04-12T16:42:55.241Z,42.35
2023-04-12T16:46:05.153Z,42.56
2023-04-12T16:49:08.130Z,43.02
2023-04-12T16:52:11.344Z,43.59
2023-04-12T16:55:14.463Z,44.21
2023-04-12T16:58:19.220Z,44.63
2023-04-12T17:01:23.409Z,44.64
2023-04-12T17:04:28.835Z,46.29
2023-04-12T17:07:33.309Z,46.29
2023-04-12T17:10:37.216Z,46.97
2023-04-12T17:13:40.014Z,46.91
2023-04-12T17:16:44.830Z,48.03
2023-04-12T17:19:49.474Z,47.71
2023-04-12T17:22:53.405Z,47.92
2023-04-12T17:26:07.576Z,49.00
2023-04-12T17:29:13.164Z,49.23
2023-04-12T17:32:21.244Z,49.80
2023-04-12T17:35:29.751Z,49.50
2023-04-12T17:38:32.881Z,50.54
2023-04-12T17:41:37.755Z,51.77
2023-04-12T17:44:41.248Z,51.76
2023-04-12T17:47:44.411Z,52.01
2023-04-12T17:50:47.450Z,53.12
2023-04-12T17:53:50.916Z,53.43
2023-04-12T17:56:53.932Z,53.56
2023-04-12T17:59:57.031Z,54.71
2023-04-12T18:03:00.734Z,55.04
2023-04-12T18:06:04.458Z,55.22
2023-04-12T18:09:13.413Z,56.80
2023-04-12T18:12:16.756Z,57.26
2023-04-12T18:15:20.125Z,56.60
2023-04-12T18:18:24.852Z,57.48
2023-04-12T18:21:30.535Z,58.22
2023-04-12T18:24:34.177Z,57.83
2023-04-12T18:27:39.143Z,58.42
2023-04-12T18:30:42.441Z,59.30
2023-04-12T18:33:49.922Z,60.86
2023-04-12T18:36:53.079Z,61.49
2023-04-12T18:39:56.211Z,62.05
2023-04-12T18:42:59.855Z,62.91
2023-04-12T18:46:03.126Z,62.91
2023-04-12T18:49:05.920Z,62.42
2023-04-12T18:52:09.571Z,63.58
2023-04-12T18:55:12.662Z,63.60
2023-04-12T18:58:19.457Z,63.84
2023-04-12T19:01:23.031Z,64.21
2023-04-12T19:04:26.250Z,63.35
2023-04-12T19:07:30.031Z,61.29
2023-04-12T19:10:33.604Z,59.97
2023-04-12T19:13:37.383Z,58.50
2023-04-12T19:16:40.658Z,58.76
2023-04-12T19:19:43.879Z,58.51
2023-04-12T19:22:47.104Z,58.12
2023-04-12T19:25:51.081Z,58.28
2023-04-12T19:28:55.849Z,57.01
2023-04-12T19:32:00.826Z,57.69
2023-04-12T19:35:06.064Z,56.62
2023-04-12T19:38:09.325Z,55.48
2023-04-12T19:41:13.588Z,54.16
2023-04-12T19:44:16.610Z,54.53
2023-04-12T19:47:20.672Z,53.36
2023-04-12T19:50:25.132Z,51.91
2023-04-12T19:53:33.444Z,51.89
2023-04-12T19:56:36.262Z,51.18
2023-04-12T19:59:39.990Z,50.72
2023-04-12T20:02:43.567Z,50.08
2023-04-12T20:05:47.676Z,48.42
2023-04-12T20:08:50.917Z,48.96
2023-04-12T20:11:54.181Z,49.05
2023-04-12T20:14:58.277Z,49.77
2023-04-12T20:18:01.772Z,50.37
2023-04-12T20:21:10.263Z,50.14
2023-04-12T20:24:13.692Z,51.20
2023-04-12T20:30:21.291Z,52.96
2023-04-12T20:33:24.256Z,53.65
2023-04-12T20:36:27.347Z,53.84
2023-04-12T20:39:30.866Z,54.71
2023-04-12T20:42:33.678Z,56.16
2023-04-12T20:45:40.561Z,56.38
2023-04-12T20:48:44.015Z,57.05
2023-04-12T20:51:47.572Z,57.90
2023-04-12T20:54:50.355Z,58.50
2023-04-12T20:57:55.947Z,59.27
2023-04-12T21:01:00.289Z,60.10
2023-04-12T21:04:06.499Z,61.09
2023-04-12T21:07:11.539Z,61.37
2023-04-12T21:10:15.356Z,62.76
2023-04-12T21:13:22.123Z,63.31
2023-04-12T21:16:25.579Z,62.68
2023-04-12T21:19:28.526Z,63.68
2023-04-12T21:22:31.383Z,65.37
2023-04-12T21:25:34.546Z,66.06
2023-04-12T21:28:38.623Z,66.80
2023-04-12T21:31:42.560Z,66.84
2023-04-12T21:34:45.686Z,67.09
2023-04-12T21:37:49.469Z,67.23
2023-04-12T21:40:52.486Z,67.22
2023-04-12T21:43:55.675Z,66.59
2023-04-12T21:47:01.732Z,66.40
2023-04-12T21:50:04.923Z,65.38
2023-04-12T21:53:08.046Z,64.38
2023-04-12T21:56:11.036Z,64.36
2023-04-12T21:59:13.865Z,63.59
2023-04-12T22:02:16.947Z,64.47
2023-04-12T22:05:19.836Z,63.08
2023-04-12T22:08:23.988Z,64.19
2023-04-12T22:11:26.700Z,63.64
2023-04-12T22:14:29.509Z,63.36
2023-04-12T22:17:32.944Z,63.52
2023-04-12T22:20:36.012Z,63.75
2023-04-12T22:23:40.806Z,64.17
2023-04-12T22:26:43.594Z,63.45
2023-04-12T22:29:47.715Z,63.19
2023-04-12T22:32:58.219Z,62.49
2023-04-12T22:36:02.385Z,62.73
2023-04-12T22:39:05.174Z,62.68
2023-04-12T22:42:08.628Z,62.75
2023-04-12T22:45:11.922Z,62.89
2023-04-12T22:48:20.383Z,63.00
2023-04-12T22:51:27.487Z,63.07
2023-04-12T22:54:30.195Z,63.37
2023-04-12T22:57:33.376Z,63.51
2023-04-12T23:00:36.353Z,63.93
2023-04-12T23:03:41.839Z,63.27
2023-04-12T23:06:44.780Z,63.04
2023-04-12T23:09:48.648Z,63.22
2023-04-12T23:12:53.714Z,62.78
2023-04-12T23:15:57.927Z,62.92
2023-04-12T23:19:01.462Z,62.75
2023-04-12T23:22:05.364Z,62.31
2023-04-12T23:25:08.707Z,61.73
2023-04-12T23:28:14.273Z,61.21
2023-04-12T23:31:17.416Z,61.91
2023-04-12T23:34:22.281Z,62.06
2023-04-12T23:37:24.971Z,61.33
2023-04-12T23:40:30.742Z,61.50
2023-04-12T23:43:37.384Z,61.67
2023-04-12T23:46:40.407Z,62.30
2023-04-12T23:49:43.803Z,61.76
2023-04-12T23:52:46.833Z,61.70
2023-04-12T23:55:53.740Z,61.83
2023-04-12T23:58:56.556Z,62.22
